Center Banner
 

Mile Run Trail Challenge Half Marathon

Overall Finish List

April 01, 2017


Results by Integrity Racing Integrity Racing

Mile Run Half Marathon

Place Name City Bib No Age Gender Age Group Total Time Pace
1 MATT LIPSEY 6587 27 M 1 Top Fin 1:31:55.24 6:49/M
2 NATHAN BONHAM WESTFIELD PA 234 20 M 1 20-29 1:36:58.60 7:11/M
3 BROCK WAUGHEN MIFFLINBURG PA 587 26 M 2 20-29 1:40:49.59 7:28/M
4 DEREK WAUGHEN MUNCY PA 588 29 M 3 20-29 1:40:49.59 7:28/M
5 STEVE TEMPLIN MUNCY PA 569 44 M 1 40-49 1:42:12.98 7:34/M
6 JOSHUA GAVITT HUGHESVILLE PA 333 42 M 2 40-49 1:44:02.37 7:42/M
7 MATTHEW STERN CENTER VALLEY PA 560 35 M 1 30-39 1:44:59.62 7:47/M
8 NORB BAIER PORT MATILDA PA 211 29 M 4 20-29 1:45:21.37 7:48/M
9 MICHAEL DINSMORE HUNTINGDON PA 290 34 M 2 30-39 1:46:41.12 7:54/M
10 MIKE HASTINGS LOCK HAVEN PA 369 31 M 3 30-39 1:47:57.18 8:00/M
11 GABE ZOOK STATE COLLEGE PA 6524 39 M 4 30-39 1:48:15.63 8:01/M
12 GILBERT BALLIET DEWART PA 215 31 M 5 30-39 1:48:29.63 8:02/M
13 MARK FISHER MIFFLIN PA 317 30 M 6 30-39 1:48:44.88 8:03/M
14 JEFFREY RUHL DANVILLE PA 520 31 M 7 30-39 1:49:12.38 8:05/M
15 MEIRA MINARD STATE COLLEGE PA 6584 43 F 1 Top Fin 1:49:18.60 8:06/M
16 MIKE DELORSO MIFFLINBURG PA 282 32 M 8 30-39 1:51:59.38 8:18/M
17 DYLAN GERATY MILL HALL PA 334 20 M 5 20-29 1:52:14.88 8:19/M
18 MATT WEAVER MILTON PA 590 42 M 3 40-49 1:52:24.86 8:20/M
19 ROBERT PHILLIPS BELLEFONTE PA 492 31 M 9 30-39 1:52:32.64 8:20/M
20 CAROLE DUDUKOVICH PORT MATILDA PA 295 50 F 1 50-59 1:52:41.92 8:21/M
21 PORT HABALAR WILLIAMSPORT PA 356 14 M 1 1-19 1:53:25.39 8:24/M
22 BOB BAUER BROCKWAY PA 217 44 M 4 40-49 1:54:26.58 8:29/M
23 WESLEY ATKINSON MILL HALL PA 209 18 M 2 1-19 1:54:34.10 8:29/M
24 RYAN GROCHAL HARDING PA 350 34 M 10 30-39 1:54:45.29 8:30/M
25 BARRETT ALLISON JERSEY SHORE PA 202 34 M 11 30-39 1:57:41.56 8:43/M
26 JOHN LEWIS WINFIELD PA 6551 45 M 5 40-49 1:57:57.63 8:44/M
27 CLINTON BIGGER LOCK HAVEN PA 229 25 M 6 20-29 1:57:58.15 8:44/M
28 JOHN MARK STOLTZFUS EPHRATA PA 561 43 M 6 40-49 1:58:31.90 8:47/M
29 MICHAEL GETZ GIRARD PA 335 56 M 1 50-59 1:58:50.20 8:48/M
30 DAN WILCOX CORNING NY 6509 35 M 12 30-39 1:59:38.10 8:52/M
31 JERRY BLASKO DANVILLE PA 232 45 M 7 40-49 1:59:38.65 8:52/M
32 MIKE HABALAR WILLIAMSPORT PA 355 43 M 8 40-49 1:59:46.61 8:52/M
33 JAKE STAMEY DANVILLE PA 557 31 M 13 30-39 2:00:58.41 8:58/M
34 NATHAN SNAVELY ZION GROVE PA 543 39 M 14 30-39 2:01:03.55 8:58/M
35 JAMES COMPTON WILLOW GROVE PA 273 40 M 9 40-49 2:01:13.16 8:59/M
36 BRIANNA BAIR STATE COLLEGE PA 213 37 F 1 30-39 2:01:13.66 8:59/M
37 RYAN NAPP TOWANDA PA 477 39 M 15 30-39 2:01:14.91 8:59/M
38 KELLY KENNEDY LEMONT PA 6527 43 M 10 40-49 2:01:49.41 9:01/M
39 JASON MAZZULLO WILLIAMSPORT PA 6566 39 M 16 30-39 2:02:15.41 9:03/M
40 MATT SOROKA BELLEFONTE PA 549 39 M 17 30-39 2:02:33.41 9:05/M
41 ROTH REASON DANVILLE PA 506 39 M 18 30-39 2:02:37.16 9:05/M
42 CHRIS COBLE STATE COLLEGE PA 269 34 M 19 30-39 2:03:04.91 9:07/M
43 GREG LANGE JERSEY SHORE PA 6547 56 M 2 50-59 2:04:10.92 9:12/M
44 KALE WEIDNER GILLETT PA 595 17 M 3 1-19 2:05:06.67 9:16/M
45 ROBERT ALLEN PALMYRA PA 201 44 M 11 40-49 2:05:40.82 9:19/M
46 JEREMY WHEELER BIG FLATS NY 6502 42 M 12 40-49 2:06:20.39 9:21/M
47 JACKSON MORRIS LEWISBURG PA 469 39 M 20 30-39 2:06:32.20 9:22/M
48 THOMAS BUTLER HERSHEY PA 256 41 M 13 40-49 2:06:36.46 9:23/M
49 NEVIN ATKINSON MILL HALL PA 208 17 M 4 1-19 2:07:04.86 9:25/M
50 SHAWN BROWN ROME PA 249 41 M 14 40-49 2:07:07.49 9:25/M
51 THOMAS MCNERNEY WILLIAMSPORT PA 6574 42 M 15 40-49 2:07:12.76 9:25/M
52 KELLY HARRIS LEWISBURG PA 365 38 F 2 30-39 2:07:19.67 9:26/M
53 MICHAEL SCHUBACH MILL HALL PA 528 45 M 16 40-49 2:07:55.18 9:29/M
54 MATTHEW EVANS MILLVILLE PA 303 41 M 17 40-49 2:09:44.32 9:37/M
55 MARK MILLER 6586 47 M 18 40-49 2:10:03.48 9:38/M
56 TC REYNOLDS MUNCY PA 515 29 M 7 20-29 2:10:17.51 9:39/M
57 REED WILLAR MILL HALL PA 6512 19 M 5 1-19 2:11:15.27 9:43/M
58 LEE ARBOGAST MUNCY PA 205 36 M 21 30-39 2:11:27.82 9:44/M
59 NATE KING CENTRE HALL PA 6533 43 M 19 40-49 2:11:29.29 9:44/M
60 JOE DONATELLI HUNTINGTON NY 292 54 M 3 50-59 2:11:32.95 9:45/M
61 TYLER KANAGY MILL HALL PA 398 27 M 8 20-29 2:11:50.26 9:46/M
62 DAN KOSSACK NEW WILMINGTON PA 6542 54 M 4 50-59 2:12:15.21 9:48/M
63 JOEL STROUSE LOGANTON PA 564 47 M 20 40-49 2:13:02.69 9:51/M
64 KEVIN SORGEN JERSEY SHORE PA 547 42 M 21 40-49 2:14:00.83 9:56/M
65 THAD WILL PORT MATILDA PA 6511 43 M 22 40-49 2:14:40.89 9:59/M
66 DAVE MITCHELL BLOOMSBURG PA 462 62 M 1 60-99 2:15:18.83 10:01/M
67 JEFF RITENOUR MILTON PA 517 42 M 23 40-49 2:15:40.33 10:03/M
68 LARIE HALL MORRISDALE PA 361 48 F 1 40-49 2:16:17.28 10:06/M
69 KATE FISHER WATSONTOWN PA 316 57 F 2 50-59 2:17:20.33 10:10/M
70 GARRET GRAFF JERSEY SHORE PA 346 44 M 24 40-49 2:17:27.29 10:11/M
71 ELIZABETH SOROKA BELLEFONTE PA 548 39 F 3 30-39 2:17:32.80 10:11/M
72 MICHAEL RANCK ORWIGSBURG PA 505 65 M 2 60-99 2:17:50.34 10:13/M
73 CHAD RESENDES KULPMONT PA 511 25 M 9 20-29 2:17:51.25 10:13/M
74 GEORGE PLOWMAN MILL HALL PA 496 36 M 22 30-39 2:18:30.19 10:16/M
75 EILEEN KLINE PINE GROVE MILLS PA 6535 53 F 3 50-59 2:19:05.56 10:18/M
76 ERIC HUMMEL DANVILLE PA 385 40 M 25 40-49 2:19:28.28 10:20/M
77 ANDREW MOYER STATE COLLEGE PA 471 46 M 26 40-49 2:19:41.59 10:21/M
78 LAURA HENSLER COGAN STATION PA 376 35 F 4 30-39 2:20:08.58 10:23/M
79 JASON BREININ PHILADELPHIA PA 242 41 M 27 40-49 2:20:21.24 10:24/M
80 SHAWN GRUBB LINDEN PA 351 44 M 28 40-49 2:20:24.68 10:24/M
81 GARY LAMPMAN RIDGWAY PA 6545 52 M 5 50-59 2:20:32.34 10:25/M
82 REBECCA WHITESELL BELLEFONTE PA 6504 55 F 4 50-59 2:20:36.85 10:25/M
83 GEORGE CAMP LEWISTOWN PA 258 56 M 6 50-59 2:20:43.96 10:25/M
84 LISA WILCOX CORNING NY 6510 40 F 2 40-49 2:21:41.80 10:30/M
85 PAIGE PIETRANGELO MONTOURSVILLE PA 493 26 F 1 20-29 2:21:44.84 10:30/M
86 MARISSA SPITLER WILLIAMSPORT PA 553 26 F 2 20-29 2:21:47.27 10:30/M
87 JENNIFER MORELLI RIDGWAY PA 467 49 F 3 40-49 2:21:55.60 10:31/M
88 KARL FEUCHT ELIZABETHTOWN PA 314 37 M 23 30-39 2:21:56.23 10:31/M
89 SEAN CONLIN NEW COLUMBIA PA 274 47 M 29 40-49 2:22:18.15 10:32/M
90 BRIAN HEMAK JERMYN PA 373 44 M 30 40-49 2:22:21.35 10:33/M
91 JODY WEIDNER GILLETT PA 594 52 M 7 50-59 2:22:22.22 10:33/M
92 JUSTIN BROUSE WATSONTOWN PA 245 30 M 24 30-39 2:22:41.53 10:34/M
93 GRETA BIDDLE DANVILLE PA 226 28 F 3 20-29 2:22:46.18 10:35/M
94 BRIANNA SPITLER MONTOURSVILLE PA 551 23 F 4 20-29 2:22:54.93 10:35/M
95 LANCE SPITLER MONTOURSVILLE PA 552 54 M 8 50-59 2:22:57.57 10:35/M
96 GARTH MITCHELL MARION NY 463 52 M 9 50-59 2:23:19.10 10:37/M
97 SEAN RESENDES KULPMONT PA 512 47 M 31 40-49 2:23:30.28 10:38/M
98 PAMELA ULICNY VALLEY VIEW PA 574 47 F 4 40-49 2:23:36.57 10:38/M
99 CRAIG ECKENRODE BEDFORD PA 300 52 M 10 50-59 2:24:01.32 10:40/M
100 ED PRY WILLIAMSPORT PA 501 47 M 32 40-49 2:24:14.52 10:41/M
 
Place Name City Bib No Age Gender Age Group Total Time Pace
101 TRACY WRIGHT WAVERLY NY 6518 42 F 5 40-49 2:25:00.86 10:44/M
102 BRANDON FOLK BEAVER SPRINGS PA 320 30 M 25 30-39 2:25:08.85 10:45/M
103 KEVIN PECHT BEECH CREEK PA 488 36 M 26 30-39 2:25:21.27 10:46/M
104 ELLEN PRESS PITTSBURGH PA 498 29 F 5 20-29 2:25:24.10 10:46/M
105 CLINT CASO BUTLER NJ 262 24 M 10 20-29 2:25:25.75 10:46/M
106 MICHAEL BENNETT MONTOURSVILLE PA 224 41 M 33 40-49 2:25:49.85 10:48/M
107 ELIAS KENNEDY LINDEN PA 6525 35 M 27 30-39 2:25:55.58 10:49/M
108 RICHARD BUNDRO STATE COLLEGE PA 251 42 M 34 40-49 2:25:59.64 10:49/M
109 AARON SHADLE HALIFAX PA 531 40 M 35 40-49 2:26:52.82 10:53/M
110 ALEXANDER FOX REEDSVILLE PA 323 54 M 11 50-59 2:27:07.46 10:54/M
111 STEVEN FANTECHI WEEDVILLE PA 309 49 M 36 40-49 2:27:32.83 10:56/M
112 TROY MILLER JULIAN PA 6583 47 M 37 40-49 2:27:53.34 10:57/M
113 JILL SNAVELY ZION GROVE PA 542 39 F 5 30-39 2:28:07.72 10:58/M
114 TUSHANNA HABALAR WILLIAMSPORT PA 357 42 F 6 40-49 2:28:19.61 10:59/M
115 TIM LEHMAN NESCOPECK PA 6550 43 M 38 40-49 2:29:23.60 11:04/M
116 MARY GORHAM LOCK HAVEN PA 345 29 F 6 20-29 2:29:29.36 11:04/M
117 ROB GOLDER BLOOMSBURG PA 341 50 M 12 50-59 2:29:37.23 11:05/M
118 MARK KNAPP GIBSONIA PA 6538 55 M 13 50-59 2:30:05.86 11:07/M
119 DAVID FOREMAN PHILADELPHIAILADELPHIA PA 322 45 M 39 40-49 2:30:14.38 11:08/M
120 MARK BERGSTROM STATE COLLEGE PA 225 56 M 14 50-59 2:30:21.28 11:08/M
121 NICHOLAS LOOKE MONTOURSVILLE PA 6557 26 M 11 20-29 2:30:26.20 11:09/M
122 MARK CHILTON COOPERSBURG PA 266 42 M 40 40-49 2:30:32.87 11:09/M
123 JON GLASS ERIE PA 337 45 M 41 40-49 2:30:33.51 11:09/M
124 LONNIE SNYDER RICHFIELD PA 545 45 M 42 40-49 2:30:37.12 11:09/M
125 JEFF GUGINO STATE COLLEGE PA 352 51 M 15 50-59 2:31:13.87 11:12/M
126 JORDAN ALTEKRUSE TOWSON MD 203 34 M 28 30-39 2:31:25.87 11:13/M
127 KIRK REED KLINGERSTOWN PA 507 43 M 43 40-49 2:32:09.87 11:16/M
128 RYAN KNECHT BLAIRSVILLE PA 6539 45 M 44 40-49 2:32:11.13 11:16/M
129 DANIEL DEMETER BELVIDERE NJ 285 51 M 16 50-59 2:32:34.46 11:18/M
130 MATT BORDAS PHILIPSBURG PA 235 17 M 6 1-19 2:33:03.13 11:20/M
131 TAMMY MCGAUGHEY CHICORA PA 6573 55 F 5 50-59 2:33:08.59 11:21/M
132 TONY YOUREY PITMAN PA 6522 37 M 29 30-39 2:33:43.71 11:23/M
133 MATTHEW REUTLINGER BOALSBURG PA 514 24 M 12 20-29 2:34:04.62 11:25/M
134 BILL SERAFIN CLYMERCLYMER PA 530 67 M 3 60-99 2:34:23.11 11:26/M
135 ALEXANDRA BUTLER MONTOURSVILLE PA 253 30 F 6 30-39 2:34:25.53 11:26/M
136 TIFFANY SECHRIST COGAN STATION PA 529 38 F 7 30-39 2:34:37.35 11:27/M
137 ASHLEY SCHRAG PENNSYLVANIA FURNACE PA 527 32 F 8 30-39 2:34:46.62 11:28/M
138 KENNETH DOWNER MECHANICSBURG PA 294 52 M 17 50-59 2:35:47.13 11:32/M
139 WILLIAM GREENLAND SHADE GAP PA 349 40 M 45 40-49 2:37:00.13 11:38/M
140 SAMANTHA HURLBUTT JERSEY SHORE PA 390 36 F 9 30-39 2:37:06.85 11:38/M
141 KELLY MILLER EPHRATA PA 6580 33 F 10 30-39 2:37:10.88 11:39/M
142 LAURIE HENDRICKS JERSEY SHORE PA 375 48 F 7 40-49 2:37:49.28 11:41/M
143 LARRY FENNESSEY BELLEFONTE PA 313 56 M 18 50-59 2:37:56.56 11:42/M
144 KURT KALWEIT ELMIRA NY 397 55 M 19 50-59 2:39:15.89 11:48/M
145 MARV WENGER MANHEIM PA 599 44 M 46 40-49 2:40:12.10 11:52/M
146 ASHLYN WERT MCELHATTAN PA 600 17 F 1 1-19 2:41:01.85 11:56/M
147 KAREN MILLER PORT MATILDA PA 6579 52 F 6 50-59 2:41:18.39 11:57/M
148 BRADEN BOROWICZ MC ELHATTAN PA 236 15 M 7 1-19 2:41:46.39 11:59/M
149 JASON KING PORT ROYAL PA 6532 29 M 13 20-29 2:42:01.10 12:00/M
150 BRIAN BROWN LEWISBURG PA 247 42 M 47 40-49 2:42:03.14 12:00/M
151 OLIVIA CUMMINS STATE COLLEGE PA 280 25 F 7 20-29 2:42:17.39 12:01/M
152 JEREMY MCFADDEN ERIE PA 6572 41 M 48 40-49 2:42:36.87 12:03/M
153 MISTY TROWBRIDGE LOCK HAVEN PA 572 36 F 11 30-39 2:42:57.99 12:04/M
154 SEAN MACMILLEN LOCK HAVEN PA 6561 43 M 49 40-49 2:42:59.64 12:04/M
155 ELISA MACMILLEN LOCK HAVEN PA 6560 31 F 12 30-39 2:43:00.24 12:04/M
156 ROBERT MARTIN NEW BLOOMFIELD PA 6565 57 M 20 50-59 2:43:30.12 12:07/M
157 GERALD BAILEY GLENCOE KY 212 65 M 4 60-99 2:44:05.63 12:09/M
158 THOMAS BINKLEY SOUTH WILLIAMSPORT PA 230 50 M 21 50-59 2:44:09.26 12:10/M
159 MELISSA WALTER BEAVERTOWN PA 583 49 F 8 40-49 2:44:28.78 12:11/M
160 SAMANTHA WEAVER JERSEY SHORE PA 591 44 F 9 40-49 2:45:12.40 12:14/M
161 STEVEN RIER DANVILLE PA 516 47 M 50 40-49 2:45:23.38 12:15/M
162 RICHARD MOGAVERO BLOOMSBURG PA 464 34 M 30 30-39 2:45:48.32 12:17/M
163 HEATHER WALTERS GREENFIELD TOWNSHIP PA 584 38 F 13 30-39 2:46:05.62 12:18/M
164 JIM LOSCH MILLERSTOWN PA 6559 51 M 22 50-59 2:46:49.70 12:21/M
165 JULIE WEAVER LEBANON PA 589 33 F 14 30-39 2:46:56.93 12:22/M
166 JONATHAN SCHNUR MECHANICSBURG PA 526 37 M 31 30-39 2:47:01.40 12:22/M
167 JOHN QUICK FLEMING PA 503 48 M 51 40-49 2:47:06.66 12:23/M
168 JOHN SHAFFER JERSEY SHORE PA 533 46 M 52 40-49 2:47:15.81 12:23/M
169 STEVE SMITH MARYSVILLE PA 541 38 M 32 30-39 2:47:22.14 12:24/M
170 CARLI MCCONNELL WATERVILLE PA 6571 13 F 2 1-19 2:47:31.15 12:25/M
171 RY FRYAR YORK PA 327 45 M 53 40-49 2:47:33.74 12:25/M
172 VICTORIA MOLESKY WILLIAMSPORT PA 465 26 F 8 20-29 2:47:41.91 12:25/M
173 RAE-ELLAH BIDDLE DANVILLE PA 227 30 F 15 30-39 2:47:46.90 12:26/M
174 JULIA LEHMAN LE ROY NY 6549 53 F 7 50-59 2:48:29.10 12:29/M
175 SHELLEY MUTH DU BOIS PA 474 43 F 10 40-49 2:48:58.66 12:31/M
176 RICHARD FILLMAN JERSEY SHORE PA 315 64 M 5 60-99 2:49:01.35 12:31/M
177 BILL MCCONNELL WATERVILLE PA 6570 41 M 54 40-49 2:49:06.84 12:32/M
178 EZRA MILLER WILLIAMSPORT PA 6578 14 M 8 1-19 2:49:13.12 12:32/M
179 BRIAN CHILTON BOALSBURG PA 265 47 M 55 40-49 2:49:20.35 12:33/M
180 JUSTIN BAER CAMP HILL PA 210 31 M 33 30-39 2:50:16.44 12:37/M
181 DAN FARLEY NEW COLUMBIA PA 311 30 M 34 30-39 2:50:32.66 12:38/M
182 RUIE BUTLER MONTOURSVILLE PA 255 36 F 16 30-39 2:51:03.76 12:40/M
183 HAROLD COLE WILLIAMSPORT PA 272 44 M 56 40-49 2:51:51.24 12:44/M
184 HEATHER HEALY CRANBERRY TWP PA 371 47 F 11 40-49 2:51:53.26 12:44/M
185 BRIAN LIPINSKI LEWISBURG PA 6554 44 M 57 40-49 2:52:04.80 12:45/M
186 BRITTANY FOLK BEAVER SPRINGS PA 321 31 F 17 30-39 2:52:05.17 12:45/M
187 TIERNEY WILLIAMS WILLIAMSPORT PA 6514 26 F 9 20-29 2:52:15.80 12:46/M
188 JOHN PHILLIPS JERSEY SHOREJE PA 491 44 M 58 40-49 2:52:28.36 12:47/M
189 MARTY MUGGLETON WILLIAMSPORT PA 472 58 M 23 50-59 2:53:18.67 12:50/M
190 BRYAN TEETER ENDICOTT NY 568 43 M 59 40-49 2:54:08.67 12:54/M
191 KRISTIE SLINKOSKY SAINT MARYS PA 540 39 F 18 30-39 2:54:11.66 12:54/M
192 TRACY NOLL LOCK HAVEN PA 482 47 F 12 40-49 2:54:35.19 12:56/M
193 STEVEN NEELY BELLEFONTE PA 480 57 M 24 50-59 2:54:49.92 12:57/M
194 CHRISTOPHER COPPOLA DANVILLE PA 278 48 M 60 40-49 2:55:14.56 12:59/M
195 ROBERT EYRING NEW OXFORD PA 305 26 M 14 20-29 2:55:15.37 12:59/M
196 BENE MILLER WILLIAMSPORT PA 6577 45 M 61 40-49 2:55:40.72 13:01/M
197 TINA BREINING JERSEY SHORE PA 243 35 F 19 30-39 2:55:55.17 13:02/M
198 RICH KELLEY SELINSGROVE PA 400 49 M 62 40-49 2:58:00.74 13:11/M
199 KRISTINA KLINGLER SELINSGROVE PA 6537 47 F 13 40-49 2:58:00.74 13:11/M
200 JOSH BENGEN JERSEY SHORE PA 222 25 M 15 20-29 2:58:10.53 13:12/M
 
Place Name City Bib No Age Gender Age Group Total Time Pace
201 EMILY BENGEN JERSEY SHORE PA 221 25 F 10 20-29 2:58:11.43 13:12/M
202 STEPHEN MCCONAGHY PALMYRA PA 6569 47 M 63 40-49 2:58:31.93 13:13/M
203 JOSH HOLSINGER CRANBERRY TWP PA 380 18 M 9 1-19 2:58:54.90 13:15/M
204 SHAUN HUPPERTZ CRANBERRY TWP PA 389 50 M 25 50-59 2:58:55.10 13:15/M
205 ROY LOFTS DOYLESTOWN PA 6556 46 M 64 40-49 2:58:57.69 13:15/M
206 JAMIE BEACHEL DANVILLE PA 219 33 F 20 30-39 2:59:13.68 13:17/M
207 JENNIFER FRITZ WINFIELD PA 325 36 F 21 30-39 3:00:28.69 13:22/M
208 BOB MARKOVICH MARS PA 6564 52 M 26 50-59 3:00:39.62 13:23/M
209 KEN MONKS DRUMS PA 466 59 M 27 50-59 3:00:41.24 13:23/M
210 CONNIE HOFFER CHICORA PA 379 42 F 14 40-49 3:00:49.20 13:24/M
211 BRIAN NAVIGLIA SPRING MILLS PA 478 39 M 35 30-39 3:01:38.67 13:27/M
212 ASHKEI BOWER DEWART PA 238 33 F 22 30-39 3:02:33.45 13:31/M
213 MARTHA BRALKOWSKI RIDGWAY PA 240 32 F 23 30-39 3:02:37.93 13:32/M
214 JULIE LANG RIDGWAY PA 6546 40 F 15 40-49 3:02:38.54 13:32/M
215 JENNIFER HELMAN REYNOLDSVILLE PA 372 35 F 24 30-39 3:02:40.79 13:32/M
216 REBECCA JACOBS ALTOONA PA 392 50 F 8 50-59 3:02:42.87 13:32/M
217 TOM STAPF LEWISBERRY PA 558 52 M 28 50-59 3:03:25.51 13:35/M
218 HULLY HOOVER HOLLIDAYSBURG PA 382 47 F 16 40-49 3:03:36.19 13:36/M
219 MELISSA QUICK FLEMING PA 504 49 F 17 40-49 3:03:51.87 13:37/M
220 JON SCHALL LOCK HAVEN PA 523 41 M 65 40-49 3:03:58.17 13:38/M
221 ELIZABETH SHAFFER JERSEY SHORE PA 532 14 F 3 1-19 3:04:34.77 13:40/M
222 ALICIA EYRING NEW OXFORD PA 304 25 F 11 20-29 3:04:38.82 13:41/M
223 CHRIS PABIAN TURTLE CREEK PA 485 40 M 66 40-49 3:05:21.86 13:44/M
224 MICHAEL HATT JERSEY SHORE PA 370 36 M 36 30-39 3:05:26.11 13:44/M
225 JADE OAKES JERSEY SHORE PA 483 41 F 18 40-49 3:05:28.14 13:44/M
226 GINA HARRIS LEBANON PA 364 32 F 25 30-39 3:06:06.13 13:47/M
227 KEVIN HARRIS LEBANON PA 366 30 M 37 30-39 3:06:06.70 13:47/M
228 STEPHANIE MORROW HARRISBURG PA 470 44 F 19 40-49 3:07:09.41 13:52/M
229 DALLAS BEACHEL DANVILLE PA 218 34 M 38 30-39 3:07:40.29 13:54/M
230 RYAN WAGNER HEGINS PA 581 27 M 16 20-29 3:08:03.25 13:56/M
231 AMANDA WHITE KLINGERSTOWN PA 6503 29 F 12 20-29 3:08:03.45 13:56/M
232 TTEETER@LIVE.CO TTEETER@LIVE.COM ENDICOTT NY 573 68 M 6 60-99 3:08:18.20 13:57/M
233 AMY SHOWERS NEW COLUMBIA PA 537 27 F 13 20-29 3:08:30.00 13:58/M
234 SCOTT LIPPY HANOVER PA 6555 64 M 7 60-99 3:08:57.64 14:00/M
235 WAYNE KLINGER HEGINS PA 6536 40 M 67 40-49 3:09:04.71 14:00/M
236 EVELYN WYNN MONTOURSVILLE PA 6519 29 F 14 20-29 3:09:49.82 14:04/M
237 MIKE HOLTZINGER JULIAN PA 381 54 M 29 50-59 3:10:12.71 14:05/M
238 NICOLE LORUSSO CLARENCE PA 6558 42 F 20 40-49 3:10:14.71 14:05/M
239 ADELINA WELCH ANNAPOLIS MD 596 59 F 9 50-59 3:10:26.14 14:06/M
240 RACHEL GUTZAN LOCK HAVEN PA 354 23 F 15 20-29 3:10:27.36 14:06/M
241 SHAINA GILBERT PORT MATILDA PA 336 34 F 26 30-39 3:10:48.67 14:08/M
242 DIANE FLICK MERCER PA 318 42 F 21 40-49 3:10:49.67 14:08/M
243 MATT ZERBY LOCK HAVEN PA 6523 29 M 17 20-29 3:11:28.87 14:11/M
244 PATRICK METZGER SELINSGROVE PA 6576 53 M 30 50-59 3:11:57.71 14:13/M
245 ADELL WILLIAMS CANTON PA 6513 38 F 27 30-39 3:12:05.20 14:14/M
246 WENDY RESHETAR HORSHAM PA 513 42 F 22 40-49 3:12:12.47 14:14/M
247 VERONICA WEAVER MILL HALL PA 592 49 F 23 40-49 3:12:33.46 14:16/M
248 GINA WERT MCELHATTAN PA 6501 51 F 10 50-59 3:13:23.58 14:19/M
249 ALBERT SWORTWOOD LOCK HAVEN PA 566 43 M 68 40-49 3:14:09.87 14:23/M
250 LARRY HARER WILLIAMSPORT PA 363 65 M 8 60-99 3:14:20.44 14:24/M
251 TRACY GOLDER BLOOMSBURG PA 342 46 F 24 40-49 3:14:34.65 14:25/M
252 ROBBIE REEVES STREET MD 510 53 F 11 50-59 3:14:48.65 14:26/M
253 CASSIE NEALLY CORNING NY 479 43 F 25 40-49 3:15:36.72 14:29/M
254 BENJAMIN RONEMUS LEHIGHTON PA 519 21 M 18 20-29 3:15:42.46 14:30/M
255 TRESSA HUMMEL DANVILLE PA 388 21 F 16 20-29 3:15:47.54 14:30/M
256 BOBI JEAN SNYDER WH MD 544 47 F 26 40-49 3:15:51.47 14:30/M
257 KERRY HOCHREITER MANSFIELD PA 377 46 F 27 40-49 3:16:02.34 14:31/M
258 MATTHEW HUMMEL DANVILLE PA 387 19 M 10 1-19 3:16:05.98 14:31/M
259 KRISTIN MANHART LOCK HAVEN PA 6563 26 F 17 20-29 3:17:25.22 14:37/M
260 ROBERT RENNINGER 6588 63 M 9 60-99 3:17:40.98 14:39/M
261 SCOTT GARMAN MILL HALL PA 332 41 M 69 40-49 3:17:48.71 14:39/M
262 LUKE GARMAN MILL HALL PA 331 8 M 11 1-19 3:17:49.22 14:39/M
263 JAMES GORHAM LOCK HAVEN PA 343 29 M 19 20-29 3:18:48.18 14:44/M
264 ANGELA BIERLY WATERVILLE PA 228 37 F 28 30-39 3:18:58.95 14:44/M
265 NICK MELNICK MARYSVILLE PA 6575 53 M 31 50-59 3:19:05.98 14:45/M
266 SUE KING MONTOURSVILLE PA 6534 45 F 28 40-49 3:19:31.23 14:47/M
267 DOUGLAS CARVELL HARRISBURG PA 261 52 M 32 50-59 3:19:41.41 14:47/M
268 JANE KONE HOWARD PA 6541 63 F 1 60-99 3:20:14.91 14:50/M
269 CARL UNDERCOFLER WOODLAND PA 576 79 M 10 60-99 3:20:16.13 14:50/M
270 REBECCA RUSCZYK SOUTH WILLIAMSPORT PA 521 30 F 29 30-39 3:20:32.16 14:51/M
271 MAUREEN STATHES BELLEFONTE PA 559 55 F 12 50-59 3:20:57.20 14:53/M
272 THOM FANTASKEY SELINSGROVE PA 308 69 M 11 60-99 3:20:59.73 14:53/M
273 CAYE GUMMO BOALSBURG PA 353 31 F 30 30-39 3:21:00.43 14:53/M
274 MARYBETH DAY PORT MATILDA PA 281 46 F 29 40-49 3:21:28.23 14:55/M
275 ERIN KENNEDY LOCK HAVEN PA 6526 40 F 30 40-49 3:21:39.79 14:56/M
276 HEATHER GARBRICK 6585 44 F 31 40-49 3:21:45.48 14:57/M
277 DAVID JENKINS DOWNINGTOWN PA 394 58 M 33 50-59 3:21:54.45 14:57/M
278 SHEILA JENKINS DOWNINGTOWN PA 395 52 F 13 50-59 3:22:04.80 14:58/M
279 PAUL NOLL LOCK HAVEN PA 481 44 M 70 40-49 3:22:17.36 14:59/M
280 STEVE ROHRBACH LOCK HAVEN PA 518 38 M 39 30-39 3:24:17.24 15:08/M
281 JANE GRASSADONIA HOLLIDAYSBURG PA 347 56 F 14 50-59 3:24:48.55 15:10/M
282 LEWIS BUCHANAN KING OF PRUSSIA PA 250 55 M 34 50-59 3:24:57.94 15:11/M
283 IRENE DONATELLI HUNTINGTON NY 291 50 F 15 50-59 3:25:25.53 15:13/M
284 JENNIFER ULMER MILLVILLE PA 575 44 F 32 40-49 3:25:59.53 15:15/M
285 BECKY BALLIET HARRISBURG PA 214 37 F 31 30-39 3:27:48.00 15:24/M
286 DUSTY LAUDENSLAGER MONTOURSVILLE PA 6548 37 F 32 30-39 3:27:51.88 15:24/M
287 MICHELLE PEKICH PORTERSVILLE PA 489 51 F 16 50-59 3:27:53.93 15:24/M
288 JEREMIAH FRIDAY BEAVER FALLS PA 324 38 M 40 30-39 3:27:54.13 15:24/M
289 AUDRIE PECHT BEECH CREEK PA 487 38 F 33 30-39 3:28:52.87 15:28/M
290 HEIDI DILL HALIFAX PA 288 32 F 34 30-39 3:28:55.93 15:29/M
291 MELISSA SHULTZ NEW COLUMBIA PA 538 31 F 35 30-39 3:29:05.25 15:29/M
292 CHRIS DONMOYER SUNBURY PA 293 64 M 12 60-99 3:30:03.78 15:34/M
293 KARIN CONSTANT STATE COLLEGE PA 275 73 F 2 60-99 3:31:35.25 15:40/M
294 OLIVIA OVERDORF MILL HALL PA 484 19 F 4 1-19 3:31:46.78 15:41/M
295 NIRAJ VISHWAKARMA LEWISBURG PA 578 39 M 41 30-39 3:32:03.83 15:42/M
296 BOB FARLEY LOCK HAVEN PA 310 61 M 13 60-99 3:32:59.76 15:47/M
297 JANINE BUTLER MONTOURSVILLE PA 254 56 F 17 50-59 3:34:07.50 15:52/M
298 MANDY DURLAND WILLIAMSPORT PA 297 37 F 36 30-39 3:34:07.70 15:52/M
299 DAVID APKER WILLIAMSPORT PA 204 40 M 71 40-49 3:34:59.25 15:55/M
300 MATT REED LEWISBURG PA 508 41 M 72 40-49 3:35:23.26 15:57/M
 
Place Name City Bib No Age Gender Age Group Total Time Pace
301 CODY STROUSE WILLIAMSPORT PA 563 35 M 42 30-39 3:35:33.16 15:58/M
302 JEFF WIESNER ERIE PA 6506 55 M 35 50-59 3:36:16.27 16:01/M
303 AMANDA BURKHOLDER GRANTVILLE PA 252 31 F 37 30-39 3:36:27.14 16:02/M
304 JANANN TODD WILLIAMSPORT PA 570 49 F 33 40-49 3:36:29.40 16:02/M
305 DALE GLOVER MONTGOMERY PA 338 46 M 73 40-49 3:36:35.21 16:03/M
306 DAVID PILKUS EASTON PA 495 53 M 36 50-59 3:36:46.24 16:03/M
307 JENNIFER GAGNON PITTSBURGH PA 328 28 F 18 20-29 3:37:08.17 16:05/M
308 NAOMI SPOTTS NORTH BEND PA 554 28 F 19 20-29 3:37:08.17 16:05/M
309 DENNIS SOBERS WILLIAMSPORT PA 546 53 M 37 50-59 3:37:16.93 16:06/M
310 MELISSA JACKSON JERSEY SHORE PA 391 36 F 38 30-39 3:37:24.52 16:06/M
311 COURTNEY WEIDLER JERSEY SHORE PA 593 29 F 20 20-29 3:37:31.34 16:07/M
312 JOAN WELFLING LOCK HAVEN PA 597 59 F 18 50-59 3:38:17.43 16:10/M
313 JENNIFER DEMETRO LOCK HAVEN PA 286 24 F 21 20-29 3:38:41.16 16:12/M
314 LESLIE CLUKEY LOCK HAVEN PA 268 51 F 19 50-59 3:39:06.34 16:14/M
315 LAURIE WIESNER ERIE PA 6507 54 F 20 50-59 3:39:55.21 16:17/M
316 CHRIS WIESNER ERIE PA 6505 47 M 74 40-49 3:39:57.25 16:18/M
317 ANGELA MYERS JOHNSONBURG PA 476 34 F 39 30-39 3:42:13.84 16:28/M
318 MARY ELLEN SHOW BELLEFONTE PA 536 44 F 34 40-49 3:45:10.28 16:41/M
319 LISA WAITE BELLEFONTE PA 582 38 F 40 30-39 3:45:10.54 16:41/M
320 MICHAEL STRZELECKI CATONSVILLE MD 565 53 M 38 50-59 3:45:16.29 16:41/M
321 ERIN BENNETT MONTOURSVILLE PA 223 41 F 35 40-49 3:45:59.96 16:44/M
322 BRENDA SPITLER MONTOURSVILLE PA 550 55 F 21 50-59 3:46:00.41 16:44/M
323 EMILY FLOOK PERKASIE PA 319 26 F 22 20-29 3:47:42.29 16:52/M
324 KASEY BLESH LOCK HAVEN PA 233 27 F 23 20-29 3:48:39.52 16:56/M
325 NICOLE CALLAHAN MILL HALL PA 257 24 F 24 20-29 3:48:41.36 16:56/M
326 MICHELE KUNTZ MUNCY PA 6543 41 F 36 40-49 3:49:44.64 17:01/M
327 ISABELLA FAVE MUNCY PA 312 14 F 5 1-19 3:49:45.24 17:01/M
328 KAREY WOLFE MILTON PA 6517 24 F 25 20-29 3:50:01.67 17:02/M
329 TERRI CAMPBELL FEASTERVILLE TREVOSE PA 259 57 F 22 50-59 3:52:27.34 17:13/M
330 SUE JOHNSON CHICORA PA 396 52 F 23 50-59 3:53:10.75 17:16/M
331 CASSIDY GODBER LITITZ PA 339 21 F 26 20-29 3:54:27.56 17:22/M
332 KARLA EISCH VESTAL NY 301 60 F 3 60-99 3:54:35.97 17:23/M
333 RUSSELL WAGNER HARRISBURG PA 580 65 M 14 60-99 3:59:53.49 17:46/M
334 DENNIS WOLFE WILLIAMSPORT PA 6516 65 M 15 60-99 4:00:02.44 17:47/M
335 STACY MCCANDLESS RENFREW PA 6567 50 F 24 50-59 4:00:26.16 17:49/M
336 DONNA WAGNER HARRISBURG PA 579 49 F 37 40-49 4:00:36.83 17:49/M
337 RUTH PRIESTER WILLIAMSPORT PA 499 47 F 38 40-49 4:00:53.80 17:51/M
338 RUTH WATSON ANNVILLE PA 586 49 F 39 40-49 4:00:58.68 17:51/M
339 MATTHEW KERSTETTER CATONSVILLE MD 6529 49 M 75 40-49 4:01:49.18 17:55/M
340 BETTY JO EBERHART JERSEY SHORE PA 298 64 F 4 60-99 4:04:24.26 18:06/M
341 LIBBY MILLER JERSEY SHORE PA 6581 41 F 40 40-49 4:04:27.33 18:06/M
342 MONIKA MILLER WILLIAMSPORT PA 6582 36 F 41 30-39 4:05:08.84 18:09/M
343 TONI GALBRAITH FLEMINGTON PA 329 48 F 41 40-49 4:10:03.99 18:31/M
344 ALISON PORTANOVA STATE COLLEGE PA 497 44 F 42 40-49 4:10:10.30 18:32/M
345 SARA SCHLESINGER JERSEY SHORE PA 524 26 F 27 20-29 4:10:22.34 18:33/M
346 REBECCA DUNLAP LOCK HAVEN PA 296 37 F 42 30-39 4:10:34.68 18:34/M
347 KODI STONER LITITZ PA 562 27 M 20 20-29 4:10:41.60 18:34/M
348 MICHAEL HAFFLEY LOCK HAVEN PA 359 49 M 76 40-49 4:11:13.60 18:37/M
349 KEVIN YEINGST FEASTERVILLE TREVOSE PA 6520 49 M 77 40-49 4:13:21.69 18:46/M
350 SUSAN MUTHLER BEECH CREEK PA 475 49 F 43 40-49 4:21:19.98 19:21/M
351 TAMMY MCCLOSKEY HOWARD PA 6568 48 F 44 40-49 4:21:35.12 19:23/M
352 BECKY PROCTOR MILL HALL PA 500 47 F 45 40-49 4:29:59.15 20:00/M
353 JIM GORHAM MILL HALL PA 344 51 M 39 50-59 4:34:04.53 20:18/M
354 ASHLEY LIDDIC JERSEY SHORE PA 6553 41 F 46 40-49 4:36:05.15 20:27/M
355 ERIN BLAKELY JERSEY SHORE PA 231 41 F 47 40-49 4:36:05.45 20:27/M
356 VICKI WIESNER ERIE PA 6508 46 F 48 40-49 4:36:06.67 20:27/M
357 JEANNA ARNOLD LITITZ PA 206 48 F 49 40-49 4:42:44.67 20:57/M
358 MATTHEW HARRY LANSDALE PA 367 35 M 43 30-39 4:47:02.77 21:16/M
359 COLETTE PILKUS FAIRLESS HILLS PA 494 34 F 43 30-39 4:47:04.40 21:16/M
360 BRANDIE CONWAY LOCK HAVEN PA 276 36 F 44 30-39 4:59:05.00 22:09/M
361 AMBER MALEK MC ELHATTAN PA 6562 36 F 45 30-39 4:59:05.00 22:09/M
362 DONNA KEELER LOCK HAVEN PA 399 74 F 5 60-99 5:08:50.00 22:53/M